Entriken, Pennsylvania
Current Conditions -  °F | °C
As of 3:53 PM on Saturday 25 Oct 2014 (Local Time) from KAOO Reporting Station
Scattered Clouds Scattered Clouds  
Wind Chill: 66°   Ceiling: Unl
Heat Index: 66°   Visibility: 10mi
Dew Point: 46°   Wind: 16mph
Humidity: 48%   Direction: 250°WSW
Pressure: 29.77"   Gusts: NA
Location:  40.33°N, 78.2°W
Report Text: KAOO 251953Z AUTO 25014KT 10SM SCT048 19/08 A2977 RMK AO2 SLP080 T01890078
Loading
Personal Weather Stations






























Interactive Weather Map
Tropical Storm Tracking
New forecast layout! Learn more

10-Day Weather Forecast

Advertisements
Track Severe Weather on mobile